sensor_id;sensor_type;location;lat;lon;timestamp;P1;durP1;ratioP1;P2;durP2;ratioP2
69197;SDS011;56311;50.298;8.514;2022-07-06T00:01:37;3.88;;;1.90;;
69197;SDS011;56311;50.298;8.514;2022-07-06T00:04:04;5.53;;;2.00;;
69197;SDS011;56311;50.298;8.514;2022-07-06T00:06:32;5.13;;;2.03;;
69197;SDS011;56311;50.298;8.514;2022-07-06T00:08:59;6.25;;;2.15;;
69197;SDS011;56311;50.298;8.514;2022-07-06T00:11:27;7.25;;;1.98;;
69197;SDS011;56311;50.298;8.514;2022-07-06T00:13:55;6.00;;;1.88;;
69197;SDS011;56311;50.298;8.514;2022-07-06T00:16:25;3.80;;;1.83;;
69197;SDS011;56311;50.298;8.514;2022-07-06T00:18:53;7.85;;;2.10;;
69197;SDS011;56311;50.298;8.514;2022-07-06T00:21:20;7.47;;;2.70;;
69197;SDS011;56311;50.298;8.514;2022-07-06T00:23:47;5.97;;;2.47;;
69197;SDS011;56311;50.298;8.514;2022-07-06T00:26:14;6.22;;;2.15;;
69197;SDS011;56311;50.298;8.514;2022-07-06T00:28:41;7.15;;;2.35;;
69197;SDS011;56311;50.298;8.514;2022-07-06T00:31:09;7.05;;;2.70;;
69197;SDS011;56311;50.298;8.514;2022-07-06T00:33:37;4.93;;;2.17;;
69197;SDS011;56311;50.298;8.514;2022-07-06T00:36:04;6.82;;;2.22;;
69197;SDS011;56311;50.298;8.514;2022-07-06T00:38:32;5.82;;;2.53;;
69197;SDS011;56311;50.298;8.514;2022-07-06T00:40:59;4.50;;;2.40;;
69197;SDS011;56311;50.298;8.514;2022-07-06T00:43:26;5.40;;;2.45;;
69197;SDS011;56311;50.298;8.514;2022-07-06T00:45:53;8.55;;;2.40;;
69197;SDS011;56311;50.298;8.514;2022-07-06T00:48:21;4.85;;;2.30;;
69197;SDS011;56311;50.298;8.514;2022-07-06T00:50:49;5.13;;;2.22;;
69197;SDS011;56311;50.298;8.514;2022-07-06T00:53:16;5.10;;;2.40;;
69197;SDS011;56311;50.298;8.514;2022-07-06T00:55:43;5.60;;;2.28;;
69197;SDS011;56311;50.298;8.514;2022-07-06T00:58:10;7.50;;;2.17;;
69197;SDS011;56311;50.298;8.514;2022-07-06T01:00:37;8.93;;;2.42;;
69197;SDS011;56311;50.298;8.514;2022-07-06T01:03:11;8.98;;;2.40;;
69197;SDS011;56311;50.298;8.514;2022-07-06T01:05:39;6.57;;;2.75;;
69197;SDS011;56311;50.298;8.514;2022-07-06T01:08:06;5.53;;;2.60;;
69197;SDS011;56311;50.298;8.514;2022-07-06T01:10:33;4.93;;;2.75;;
69197;SDS011;56311;50.298;8.514;2022-07-06T01:13:00;4.75;;;2.30;;
69197;SDS011;56311;50.298;8.514;2022-07-06T01:15:27;5.60;;;2.38;;
69197;SDS011;56311;50.298;8.514;2022-07-06T01:17:54;5.78;;;2.45;;
69197;SDS011;56311;50.298;8.514;2022-07-06T01:20:23;6.00;;;2.35;;
69197;SDS011;56311;50.298;8.514;2022-07-06T01:22:52;5.53;;;2.42;;
69197;SDS011;56311;50.298;8.514;2022-07-06T01:25:20;6.85;;;2.85;;
69197;SDS011;56311;50.298;8.514;2022-07-06T01:27:47;6.85;;;2.60;;
69197;SDS011;56311;50.298;8.514;2022-07-06T01:30:15;5.57;;;2.13;;
69197;SDS011;56311;50.298;8.514;2022-07-06T01:32:44;7.32;;;2.30;;
69197;SDS011;56311;50.298;8.514;2022-07-06T01:35:12;5.75;;;2.13;;
69197;SDS011;56311;50.298;8.514;2022-07-06T01:37:42;4.75;;;2.00;;
69197;SDS011;56311;50.298;8.514;2022-07-06T01:40:24;7.00;;;2.50;;
69197;SDS011;56311;50.298;8.514;2022-07-06T01:42:51;4.47;;;2.10;;
69197;SDS011;56311;50.298;8.514;2022-07-06T01:45:18;4.25;;;2.25;;
69197;SDS011;56311;50.298;8.514;2022-07-06T01:47:45;7.13;;;2.03;;
69197;SDS011;56311;50.298;8.514;2022-07-06T01:50:12;4.28;;;2.13;;
69197;SDS011;56311;50.298;8.514;2022-07-06T01:52:39;7.25;;;2.65;;
69197;SDS011;56311;50.298;8.514;2022-07-06T01:55:07;4.57;;;2.22;;
69197;SDS011;56311;50.298;8.514;2022-07-06T01:57:35;6.63;;;2.30;;
69197;SDS011;56311;50.298;8.514;2022-07-06T02:00:04;5.60;;;2.50;;
69197;SDS011;56311;50.298;8.514;2022-07-06T02:02:32;3.85;;;1.90;;
69197;SDS011;56311;50.298;8.514;2022-07-06T02:04:59;6.13;;;2.40;;
69197;SDS011;56311;50.298;8.514;2022-07-06T02:07:26;9.95;;;2.33;;
69197;SDS011;56311;50.298;8.514;2022-07-06T02:09:53;7.80;;;2.33;;
69197;SDS011;56311;50.298;8.514;2022-07-06T02:12:21;4.80;;;2.00;;
69197;SDS011;56311;50.298;8.514;2022-07-06T02:14:48;4.88;;;2.20;;
69197;SDS011;56311;50.298;8.514;2022-07-06T02:17:15;6.35;;;2.42;;
69197;SDS011;56311;50.298;8.514;2022-07-06T02:19:42;4.47;;;2.10;;
69197;SDS011;56311;50.298;8.514;2022-07-06T02:22:09;6.50;;;2.00;;
69197;SDS011;56311;50.298;8.514;2022-07-06T02:24:36;7.07;;;2.10;;
69197;SDS011;56311;50.298;8.514;2022-07-06T02:27:03;4.88;;;2.00;;
69197;SDS011;56311;50.298;8.514;2022-07-06T02:29:31;3.65;;;2.08;;
69197;SDS011;56311;50.298;8.514;2022-07-06T02:31:58;7.57;;;2.13;;
69197;SDS011;56311;50.298;8.514;2022-07-06T02:34:25;6.63;;;2.15;;
69197;SDS011;56311;50.298;8.514;2022-07-06T02:36:52;5.47;;;1.83;;
69197;SDS011;56311;50.298;8.514;2022-07-06T02:39:19;4.40;;;1.90;;
69197;SDS011;56311;50.298;8.514;2022-07-06T02:41:46;5.00;;;2.13;;
69197;SDS011;56311;50.298;8.514;2022-07-06T02:44:13;5.05;;;2.03;;
69197;SDS011;56311;50.298;8.514;2022-07-06T02:46:41;7.63;;;1.85;;
69197;SDS011;56311;50.298;8.514;2022-07-06T02:49:08;4.82;;;2.13;;
69197;SDS011;56311;50.298;8.514;2022-07-06T02:51:35;4.13;;;2.00;;
69197;SDS011;56311;50.298;8.514;2022-07-06T02:54:02;5.18;;;2.00;;
69197;SDS011;56311;50.298;8.514;2022-07-06T02:56:29;4.95;;;2.05;;
69197;SDS011;56311;50.298;8.514;2022-07-06T02:58:56;4.25;;;1.95;;
69197;SDS011;56311;50.298;8.514;2022-07-06T03:01:23;6.10;;;1.85;;
69197;SDS011;56311;50.298;8.514;2022-07-06T03:03:52;5.25;;;1.85;;
69197;SDS011;56311;50.298;8.514;2022-07-06T03:06:19;6.78;;;2.30;;
69197;SDS011;56311;50.298;8.514;2022-07-06T03:08:46;6.43;;;2.10;;
69197;SDS011;56311;50.298;8.514;2022-07-06T03:11:13;6.25;;;2.38;;
69197;SDS011;56311;50.298;8.514;2022-07-06T03:13:40;5.57;;;2.05;;
69197;SDS011;56311;50.298;8.514;2022-07-06T03:16:07;5.07;;;2.15;;
69197;SDS011;56311;50.298;8.514;2022-07-06T03:18:33;5.43;;;2.13;;
69197;SDS011;56311;50.298;8.514;2022-07-06T03:21:02;5.88;;;2.15;;
69197;SDS011;56311;50.298;8.514;2022-07-06T03:23:30;4.70;;;1.88;;
69197;SDS011;56311;50.298;8.514;2022-07-06T03:25:57;4.18;;;2.10;;
69197;SDS011;56311;50.298;8.514;2022-07-06T03:28:24;3.90;;;1.92;;
69197;SDS011;56311;50.298;8.514;2022-07-06T03:30:51;4.20;;;2.15;;
69197;SDS011;56311;50.298;8.514;2022-07-06T03:33:18;3.95;;;1.90;;
69197;SDS011;56311;50.298;8.514;2022-07-06T03:35:45;5.05;;;2.25;;
69197;SDS011;56311;50.298;8.514;2022-07-06T03:38:13;5.47;;;2.33;;
69197;SDS011;56311;50.298;8.514;2022-07-06T03:40:40;7.13;;;2.30;;
69197;SDS011;56311;50.298;8.514;2022-07-06T03:43:07;4.43;;;2.42;;
69197;SDS011;56311;50.298;8.514;2022-07-06T03:45:34;5.22;;;2.25;;
69197;SDS011;56311;50.298;8.514;2022-07-06T03:48:01;7.25;;;2.47;;
69197;SDS011;56311;50.298;8.514;2022-07-06T03:50:28;4.25;;;2.15;;
69197;SDS011;56311;50.298;8.514;2022-07-06T03:52:55;5.47;;;2.10;;
69197;SDS011;56311;50.298;8.514;2022-07-06T03:55:24;7.10;;;2.83;;
69197;SDS011;56311;50.298;8.514;2022-07-06T03:57:51;6.15;;;2.33;;
69197;SDS011;56311;50.298;8.514;2022-07-06T04:00:18;6.50;;;2.60;;
69197;SDS011;56311;50.298;8.514;2022-07-06T04:02:45;6.43;;;2.42;;
69197;SDS011;56311;50.298;8.514;2022-07-06T04:05:12;5.28;;;2.35;;
69197;SDS011;56311;50.298;8.514;2022-07-06T04:07:39;6.40;;;2.40;;
69197;SDS011;56311;50.298;8.514;2022-07-06T04:10:07;4.40;;;2.20;;
69197;SDS011;56311;50.298;8.514;2022-07-06T04:12:40;6.75;;;2.53;;
69197;SDS011;56311;50.298;8.514;2022-07-06T04:15:08;6.60;;;2.53;;
69197;SDS011;56311;50.298;8.514;2022-07-06T04:17:36;7.03;;;2.92;;
69197;SDS011;56311;50.298;8.514;2022-07-06T04:20:18;7.47;;;3.00;;
69197;SDS011;56311;50.298;8.514;2022-07-06T04:22:46;6.45;;;2.97;;
69197;SDS011;56311;50.298;8.514;2022-07-06T04:25:14;10.63;;;3.35;;
69197;SDS011;56311;50.298;8.514;2022-07-06T04:27:43;6.80;;;3.35;;
69197;SDS011;56311;50.298;8.514;2022-07-06T04:30:10;5.82;;;3.35;;
69197;SDS011;56311;50.298;8.514;2022-07-06T04:32:38;6.93;;;3.28;;
69197;SDS011;56311;50.298;8.514;2022-07-06T04:35:05;4.80;;;2.85;;
69197;SDS011;56311;50.298;8.514;2022-07-06T04:37:33;6.30;;;3.05;;
69197;SDS011;56311;50.298;8.514;2022-07-06T04:40:00;8.63;;;3.35;;
69197;SDS011;56311;50.298;8.514;2022-07-06T04:42:27;6.65;;;2.92;;
69197;SDS011;56311;50.298;8.514;2022-07-06T04:44:56;5.72;;;3.10;;
69197;SDS011;56311;50.298;8.514;2022-07-06T04:47:23;6.97;;;2.90;;
69197;SDS011;56311;50.298;8.514;2022-07-06T04:49:50;8.40;;;3.40;;
69197;SDS011;56311;50.298;8.514;2022-07-06T04:52:17;5.72;;;2.70;;
69197;SDS011;56311;50.298;8.514;2022-07-06T04:54:44;7.47;;;2.50;;
69197;SDS011;56311;50.298;8.514;2022-07-06T04:57:11;7.70;;;2.85;;
69197;SDS011;56311;50.298;8.514;2022-07-06T04:59:38;7.47;;;2.70;;
69197;SDS011;56311;50.298;8.514;2022-07-06T05:02:07;4.97;;;2.42;;
69197;SDS011;56311;50.298;8.514;2022-07-06T05:04:34;9.75;;;2.95;;
69197;SDS011;56311;50.298;8.514;2022-07-06T05:07:01;6.70;;;2.60;;
69197;SDS011;56311;50.298;8.514;2022-07-06T05:09:28;7.82;;;2.92;;
69197;SDS011;56311;50.298;8.514;2022-07-06T05:11:55;10.15;;;3.20;;
69197;SDS011;56311;50.298;8.514;2022-07-06T05:14:22;8.15;;;3.17;;
69197;SDS011;56311;50.298;8.514;2022-07-06T05:16:49;6.05;;;3.03;;
69197;SDS011;56311;50.298;8.514;2022-07-06T05:19:18;8.63;;;3.00;;
69197;SDS011;56311;50.298;8.514;2022-07-06T05:21:45;6.63;;;3.25;;
69197;SDS011;56311;50.298;8.514;2022-07-06T05:24:11;6.50;;;3.00;;
69197;SDS011;56311;50.298;8.514;2022-07-06T05:26:38;5.85;;;3.22;;
69197;SDS011;56311;50.298;8.514;2022-07-06T05:29:06;11.38;;;3.40;;
69197;SDS011;56311;50.298;8.514;2022-07-06T05:31:32;10.25;;;2.92;;
69197;SDS011;56311;50.298;8.514;2022-07-06T05:34:00;7.88;;;4.10;;
69197;SDS011;56311;50.298;8.514;2022-07-06T05:36:28;6.15;;;3.50;;
69197;SDS011;56311;50.298;8.514;2022-07-06T05:38:55;7.63;;;3.90;;
69197;SDS011;56311;50.298;8.514;2022-07-06T05:41:22;8.98;;;3.95;;
69197;SDS011;56311;50.298;8.514;2022-07-06T05:46:23;10.43;;;3.67;;
69197;SDS011;56311;50.298;8.514;2022-07-06T05:48:50;8.20;;;3.85;;
69197;SDS011;56311;50.298;8.514;2022-07-06T05:51:37;10.32;;;3.70;;
69197;SDS011;56311;50.298;8.514;2022-07-06T05:54:04;8.88;;;3.28;;
69197;SDS011;56311;50.298;8.514;2022-07-06T05:56:30;11.68;;;3.90;;
69197;SDS011;56311;50.298;8.514;2022-07-06T05:58:57;8.38;;;3.78;;
69197;SDS011;56311;50.298;8.514;2022-07-06T06:01:25;7.55;;;3.28;;
69197;SDS011;56311;50.298;8.514;2022-07-06T06:03:52;6.45;;;3.22;;
69197;SDS011;56311;50.298;8.514;2022-07-06T06:06:19;8.50;;;3.60;;
69197;SDS011;56311;50.298;8.514;2022-07-06T06:08:47;7.68;;;3.17;;
69197;SDS011;56311;50.298;8.514;2022-07-06T06:11:14;8.23;;;3.80;;
69197;SDS011;56311;50.298;8.514;2022-07-06T06:13:41;7.05;;;2.95;;
69197;SDS011;56311;50.298;8.514;2022-07-06T06:16:09;6.13;;;3.15;;
69197;SDS011;56311;50.298;8.514;2022-07-06T06:18:36;9.18;;;3.35;;
69197;SDS011;56311;50.298;8.514;2022-07-06T06:21:08;5.18;;;2.80;;
69197;SDS011;56311;50.298;8.514;2022-07-06T06:23:36;5.53;;;3.03;;
69197;SDS011;56311;50.298;8.514;2022-07-06T06:26:04;9.38;;;3.20;;
69197;SDS011;56311;50.298;8.514;2022-07-06T06:28:31;7.75;;;3.15;;
69197;SDS011;56311;50.298;8.514;2022-07-06T06:30:58;9.38;;;2.90;;
69197;SDS011;56311;50.298;8.514;2022-07-06T06:33:25;4.97;;;2.78;;
69197;SDS011;56311;50.298;8.514;2022-07-06T06:35:52;6.35;;;3.13;;
69197;SDS011;56311;50.298;8.514;2022-07-06T06:38:21;9.57;;;3.00;;
69197;SDS011;56311;50.298;8.514;2022-07-06T06:40:53;7.43;;;3.00;;
69197;SDS011;56311;50.298;8.514;2022-07-06T06:43:22;7.20;;;2.90;;
69197;SDS011;56311;50.298;8.514;2022-07-06T06:45:49;5.93;;;2.92;;
69197;SDS011;56311;50.298;8.514;2022-07-06T06:48:16;7.72;;;2.97;;
69197;SDS011;56311;50.298;8.514;2022-07-06T06:50:43;8.18;;;3.03;;
69197;SDS011;56311;50.298;8.514;2022-07-06T06:53:11;6.78;;;3.28;;
69197;SDS011;56311;50.298;8.514;2022-07-06T06:55:38;5.70;;;2.88;;
69197;SDS011;56311;50.298;8.514;2022-07-06T06:58:05;6.85;;;2.45;;
69197;SDS011;56311;50.298;8.514;2022-07-06T07:00:33;7.22;;;3.03;;
69197;SDS011;56311;50.298;8.514;2022-07-06T07:03:00;6.68;;;2.85;;
69197;SDS011;56311;50.298;8.514;2022-07-06T07:05:27;7.80;;;3.30;;
69197;SDS011;56311;50.298;8.514;2022-07-06T07:07:54;10.15;;;2.88;;
69197;SDS011;56311;50.298;8.514;2022-07-06T07:10:30;6.07;;;3.20;;
69197;SDS011;56311;50.298;8.514;2022-07-06T07:12:57;9.05;;;3.33;;
69197;SDS011;56311;50.298;8.514;2022-07-06T07:15:24;8.20;;;3.60;;
69197;SDS011;56311;50.298;8.514;2022-07-06T07:17:53;9.13;;;3.40;;
69197;SDS011;56311;50.298;8.514;2022-07-06T07:20:20;7.20;;;3.70;;
69197;SDS011;56311;50.298;8.514;2022-07-06T07:22:47;8.13;;;3.92;;
69197;SDS011;56311;50.298;8.514;2022-07-06T07:25:14;8.30;;;3.85;;
69197;SDS011;56311;50.298;8.514;2022-07-06T07:27:41;8.80;;;3.90;;
69197;SDS011;56311;50.298;8.514;2022-07-06T07:30:09;8.35;;;4.07;;
69197;SDS011;56311;50.298;8.514;2022-07-06T07:32:36;8.30;;;3.67;;
69197;SDS011;56311;50.298;8.514;2022-07-06T07:35:05;8.18;;;3.63;;
69197;SDS011;56311;50.298;8.514;2022-07-06T07:37:33;8.48;;;3.95;;
69197;SDS011;56311;50.298;8.514;2022-07-06T07:40:00;11.52;;;3.42;;
69197;SDS011;56311;50.298;8.514;2022-07-06T07:42:27;8.40;;;3.20;;
69197;SDS011;56311;50.298;8.514;2022-07-06T07:44:54;8.82;;;4.00;;
69197;SDS011;56311;50.298;8.514;2022-07-06T07:47:21;8.50;;;3.72;;
69197;SDS011;56311;50.298;8.514;2022-07-06T07:49:48;7.03;;;4.20;;
69197;SDS011;56311;50.298;8.514;2022-07-06T07:52:17;6.22;;;3.85;;
69197;SDS011;56311;50.298;8.514;2022-07-06T07:54:44;7.03;;;2.92;;
69197;SDS011;56311;50.298;8.514;2022-07-06T07:57:23;8.63;;;3.13;;
69197;SDS011;56311;50.298;8.514;2022-07-06T07:59:50;8.77;;;3.28;;
69197;SDS011;56311;50.298;8.514;2022-07-06T08:02:17;6.15;;;3.10;;
69197;SDS011;56311;50.298;8.514;2022-07-06T08:04:44;6.00;;;2.72;;
69197;SDS011;56311;50.298;8.514;2022-07-06T08:07:11;7.15;;;3.33;;
69197;SDS011;56311;50.298;8.514;2022-07-06T08:09:39;5.32;;;2.90;;
69197;SDS011;56311;50.298;8.514;2022-07-06T08:12:07;7.78;;;3.22;;
69197;SDS011;56311;50.298;8.514;2022-07-06T08:14:34;6.90;;;2.90;;
69197;SDS011;56311;50.298;8.514;2022-07-06T08:17:03;7.53;;;2.70;;
69197;SDS011;56311;50.298;8.514;2022-07-06T08:19:31;8.38;;;2.80;;
69197;SDS011;56311;50.298;8.514;2022-07-06T08:21:58;7.35;;;2.97;;
69197;SDS011;56311;50.298;8.514;2022-07-06T08:24:25;14.85;;;3.30;;
69197;SDS011;56311;50.298;8.514;2022-07-06T08:26:53;5.65;;;3.08;;
69197;SDS011;56311;50.298;8.514;2022-07-06T08:29:21;7.35;;;3.40;;
69197;SDS011;56311;50.298;8.514;2022-07-06T08:31:48;6.15;;;3.00;;
69197;SDS011;56311;50.298;8.514;2022-07-06T08:34:21;7.15;;;3.17;;
69197;SDS011;56311;50.298;8.514;2022-07-06T08:36:48;9.05;;;3.30;;
69197;SDS011;56311;50.298;8.514;2022-07-06T08:39:15;7.32;;;3.47;;
69197;SDS011;56311;50.298;8.514;2022-07-06T08:41:44;7.07;;;3.40;;
69197;SDS011;56311;50.298;8.514;2022-07-06T08:44:15;6.20;;;3.13;;
69197;SDS011;56311;50.298;8.514;2022-07-06T08:46:43;6.22;;;2.55;;
69197;SDS011;56311;50.298;8.514;2022-07-06T08:49:12;8.25;;;2.70;;
69197;SDS011;56311;50.298;8.514;2022-07-06T08:51:41;7.22;;;2.85;;
69197;SDS011;56311;50.298;8.514;2022-07-06T08:54:08;8.60;;;3.47;;
69197;SDS011;56311;50.298;8.514;2022-07-06T08:56:37;6.68;;;3.03;;
69197;SDS011;56311;50.298;8.514;2022-07-06T08:59:12;4.70;;;2.90;;
69197;SDS011;56311;50.298;8.514;2022-07-06T09:01:41;7.00;;;2.80;;
69197;SDS011;56311;50.298;8.514;2022-07-06T09:04:10;6.90;;;3.30;;
69197;SDS011;56311;50.298;8.514;2022-07-06T09:06:39;5.80;;;2.92;;
69197;SDS011;56311;50.298;8.514;2022-07-06T09:09:08;5.68;;;2.47;;
69197;SDS011;56311;50.298;8.514;2022-07-06T09:11:36;5.93;;;2.60;;
69197;SDS011;56311;50.298;8.514;2022-07-06T09:14:04;5.55;;;2.40;;
69197;SDS011;56311;50.298;8.514;2022-07-06T09:16:31;4.68;;;2.30;;
69197;SDS011;56311;50.298;8.514;2022-07-06T09:21:34;6.72;;;2.40;;
69197;SDS011;56311;50.298;8.514;2022-07-06T09:24:06;4.90;;;2.20;;
69197;SDS011;56311;50.298;8.514;2022-07-06T09:26:34;6.28;;;2.35;;
69197;SDS011;56311;50.298;8.514;2022-07-06T09:29:02;4.65;;;1.92;;
69197;SDS011;56311;50.298;8.514;2022-07-06T09:31:30;4.88;;;1.88;;
69197;SDS011;56311;50.298;8.514;2022-07-06T09:33:58;5.68;;;2.20;;
69197;SDS011;56311;50.298;8.514;2022-07-06T09:36:41;5.53;;;2.30;;
69197;SDS011;56311;50.298;8.514;2022-07-06T09:39:16;4.78;;;2.00;;
69197;SDS011;56311;50.298;8.514;2022-07-06T09:41:44;6.03;;;2.05;;
69197;SDS011;56311;50.298;8.514;2022-07-06T09:44:11;4.07;;;1.90;;
69197;SDS011;56311;50.298;8.514;2022-07-06T09:46:39;4.80;;;1.90;;
69197;SDS011;56311;50.298;8.514;2022-07-06T09:49:07;6.07;;;1.90;;
69197;SDS011;56311;50.298;8.514;2022-07-06T09:51:35;4.93;;;1.80;;
69197;SDS011;56311;50.298;8.514;2022-07-06T09:54:05;5.53;;;1.80;;
69197;SDS011;56311;50.298;8.514;2022-07-06T09:56:37;4.10;;;1.73;;
69197;SDS011;56311;50.298;8.514;2022-07-06T09:59:11;5.90;;;1.73;;
69197;SDS011;56311;50.298;8.514;2022-07-06T10:01:39;4.45;;;1.92;;
69197;SDS011;56311;50.298;8.514;2022-07-06T10:04:07;7.13;;;1.70;;
69197;SDS011;56311;50.298;8.514;2022-07-06T10:06:35;3.30;;;1.40;;
69197;SDS011;56311;50.298;8.514;2022-07-06T10:09:05;3.88;;;1.30;;
69197;SDS011;56311;50.298;8.514;2022-07-06T10:11:39;4.65;;;1.58;;
69197;SDS011;56311;50.298;8.514;2022-07-06T10:14:07;5.57;;;1.65;;
69197;SDS011;56311;50.298;8.514;2022-07-06T10:16:35;5.20;;;1.23;;
69197;SDS011;56311;50.298;8.514;2022-07-06T10:19:04;7.38;;;1.58;;
69197;SDS011;56311;50.298;8.514;2022-07-06T10:21:33;4.07;;;1.20;;
69197;SDS011;56311;50.298;8.514;2022-07-06T10:24:02;4.65;;;1.58;;
69197;SDS011;56311;50.298;8.514;2022-07-06T10:26:32;3.63;;;1.35;;
69197;SDS011;56311;50.298;8.514;2022-07-06T10:29:00;3.78;;;1.40;;
69197;SDS011;56311;50.298;8.514;2022-07-06T10:31:27;3.42;;;1.30;;
69197;SDS011;56311;50.298;8.514;2022-07-06T10:33:56;3.90;;;1.00;;
69197;SDS011;56311;50.298;8.514;2022-07-06T10:36:25;5.32;;;1.38;;
69197;SDS011;56311;50.298;8.514;2022-07-06T10:38:53;2.83;;;1.20;;
69197;SDS011;56311;50.298;8.514;2022-07-06T10:41:31;3.90;;;1.30;;
69197;SDS011;56311;50.298;8.514;2022-07-06T10:44:14;6.03;;;1.52;;
69197;SDS011;56311;50.298;8.514;2022-07-06T10:46:48;5.13;;;1.40;;
69197;SDS011;56311;50.298;8.514;2022-07-06T10:49:16;4.63;;;1.02;;
69197;SDS011;56311;50.298;8.514;2022-07-06T10:52:04;9.05;;;1.20;;
69197;SDS011;56311;50.298;8.514;2022-07-06T10:54:32;3.10;;;1.10;;
69197;SDS011;56311;50.298;8.514;2022-07-06T10:57:10;4.72;;;1.48;;
69197;SDS011;56311;50.298;8.514;2022-07-06T10:59:41;6.57;;;1.10;;
69197;SDS011;56311;50.298;8.514;2022-07-06T11:02:29;5.78;;;1.00;;
69197;SDS011;56311;50.298;8.514;2022-07-06T11:05:05;3.40;;;0.90;;
69197;SDS011;56311;50.298;8.514;2022-07-06T11:07:41;4.40;;;1.23;;
69197;SDS011;56311;50.298;8.514;2022-07-06T11:10:16;4.65;;;1.17;;
69197;SDS011;56311;50.298;8.514;2022-07-06T11:12:45;8.93;;;1.20;;
69197;SDS011;56311;50.298;8.514;2022-07-06T11:15:12;3.78;;;1.20;;
69197;SDS011;56311;50.298;8.514;2022-07-06T11:18:14;4.05;;;1.40;;
69197;SDS011;56311;50.298;8.514;2022-07-06T11:23:45;5.22;;;1.05;;
69197;SDS011;56311;50.298;8.514;2022-07-06T11:26:13;2.97;;;0.90;;
69197;SDS011;56311;50.298;8.514;2022-07-06T11:28:42;5.18;;;1.17;;
69197;SDS011;56311;50.298;8.514;2022-07-06T11:31:12;2.95;;;1.05;;
69197;SDS011;56311;50.298;8.514;2022-07-06T11:33:40;2.38;;;0.95;;
69197;SDS011;56311;50.298;8.514;2022-07-06T11:36:14;2.97;;;0.90;;
69197;SDS011;56311;50.298;8.514;2022-07-06T11:38:42;3.58;;;0.90;;
69197;SDS011;56311;50.298;8.514;2022-07-06T11:41:10;3.20;;;0.88;;
69197;SDS011;56311;50.298;8.514;2022-07-06T11:43:40;4.15;;;1.00;;
69197;SDS011;56311;50.298;8.514;2022-07-06T11:46:20;3.90;;;0.70;;
69197;SDS011;56311;50.298;8.514;2022-07-06T11:48:52;2.33;;;0.77;;
69197;SDS011;56311;50.298;8.514;2022-07-06T11:51:21;3.38;;;0.90;;
69197;SDS011;56311;50.298;8.514;2022-07-06T11:53:51;3.55;;;0.95;;
69197;SDS011;56311;50.298;8.514;2022-07-06T11:56:21;3.90;;;1.00;;
69197;SDS011;56311;50.298;8.514;2022-07-06T11:58:53;4.40;;;0.95;;
69197;SDS011;56311;50.298;8.514;2022-07-06T12:01:22;3.42;;;0.90;;
69197;SDS011;56311;50.298;8.514;2022-07-06T12:03:53;2.42;;;0.80;;
69197;SDS011;56311;50.298;8.514;2022-07-06T12:06:24;4.10;;;0.80;;
69197;SDS011;56311;50.298;8.514;2022-07-06T12:08:52;4.13;;;0.95;;
69197;SDS011;56311;50.298;8.514;2022-07-06T12:11:21;3.28;;;0.82;;
69197;SDS011;56311;50.298;8.514;2022-07-06T12:13:50;5.43;;;1.02;;
69197;SDS011;56311;50.298;8.514;2022-07-06T12:16:21;3.83;;;0.90;;
69197;SDS011;56311;50.298;8.514;2022-07-06T12:18:54;4.25;;;0.80;;
69197;SDS011;56311;50.298;8.514;2022-07-06T12:21:21;3.17;;;1.17;;
69197;SDS011;56311;50.298;8.514;2022-07-06T12:23:49;3.33;;;1.25;;
69197;SDS011;56311;50.298;8.514;2022-07-06T12:26:18;5.90;;;0.95;;
69197;SDS011;56311;50.298;8.514;2022-07-06T12:28:54;5.13;;;0.90;;
69197;SDS011;56311;50.298;8.514;2022-07-06T12:31:34;3.55;;;1.00;;
69197;SDS011;56311;50.298;8.514;2022-07-06T12:34:03;3.35;;;0.90;;
69197;SDS011;56311;50.298;8.514;2022-07-06T12:36:32;5.53;;;0.85;;
69197;SDS011;56311;50.298;8.514;2022-07-06T12:39:10;2.88;;;0.90;;
69197;SDS011;56311;50.298;8.514;2022-07-06T12:41:43;5.22;;;1.05;;
69197;SDS011;56311;50.298;8.514;2022-07-06T12:44:15;4.30;;;0.90;;
69197;SDS011;56311;50.298;8.514;2022-07-06T12:46:45;4.10;;;0.90;;
69197;SDS011;56311;50.298;8.514;2022-07-06T12:49:14;4.28;;;0.85;;
69197;SDS011;56311;50.298;8.514;2022-07-06T12:51:53;4.70;;;1.10;;
69197;SDS011;56311;50.298;8.514;2022-07-06T12:54:22;5.72;;;1.17;;
69197;SDS011;56311;50.298;8.514;2022-07-06T12:59:45;4.25;;;1.00;;
69197;SDS011;56311;50.298;8.514;2022-07-06T13:02:20;4.53;;;1.00;;
69197;SDS011;56311;50.298;8.514;2022-07-06T13:05:09;3.45;;;0.90;;
69197;SDS011;56311;50.298;8.514;2022-07-06T13:07:39;4.13;;;1.10;;
69197;SDS011;56311;50.298;8.514;2022-07-06T13:10:12;3.50;;;1.10;;
69197;SDS011;56311;50.298;8.514;2022-07-06T13:12:40;6.03;;;1.27;;
69197;SDS011;56311;50.298;8.514;2022-07-06T13:15:10;4.97;;;1.23;;
69197;SDS011;56311;50.298;8.514;2022-07-06T13:17:37;6.13;;;1.40;;
69197;SDS011;56311;50.298;8.514;2022-07-06T13:20:05;7.47;;;1.40;;
69197;SDS011;56311;50.298;8.514;2022-07-06T13:22:33;3.63;;;1.25;;
69197;SDS011;56311;50.298;8.514;2022-07-06T13:25:00;4.40;;;1.50;;
69197;SDS011;56311;50.298;8.514;2022-07-06T13:27:28;4.18;;;1.33;;
69197;SDS011;56311;50.298;8.514;2022-07-06T13:29:55;3.35;;;1.20;;
69197;SDS011;56311;50.298;8.514;2022-07-06T13:32:23;7.85;;;1.33;;
69197;SDS011;56311;50.298;8.514;2022-07-06T13:34:50;3.40;;;1.30;;
69197;SDS011;56311;50.298;8.514;2022-07-06T13:37:18;6.53;;;1.52;;
69197;SDS011;56311;50.298;8.514;2022-07-06T13:39:46;6.68;;;1.50;;
69197;SDS011;56311;50.298;8.514;2022-07-06T13:42:13;6.53;;;1.42;;
69197;SDS011;56311;50.298;8.514;2022-07-06T13:44:40;4.47;;;1.30;;
69197;SDS011;56311;50.298;8.514;2022-07-06T13:47:07;4.85;;;1.10;;
69197;SDS011;56311;50.298;8.514;2022-07-06T13:49:35;3.67;;;1.17;;
69197;SDS011;56311;50.298;8.514;2022-07-06T13:52:03;8.15;;;1.73;;
69197;SDS011;56311;50.298;8.514;2022-07-06T13:54:31;3.17;;;1.08;;
69197;SDS011;56311;50.298;8.514;2022-07-06T13:57:00;3.38;;;1.40;;
69197;SDS011;56311;50.298;8.514;2022-07-06T13:59:28;4.47;;;1.30;;
69197;SDS011;56311;50.298;8.514;2022-07-06T14:01:55;4.45;;;1.17;;
69197;SDS011;56311;50.298;8.514;2022-07-06T14:04:23;5.85;;;1.20;;
69197;SDS011;56311;50.298;8.514;2022-07-06T14:06:51;3.72;;;1.20;;
69197;SDS011;56311;50.298;8.514;2022-07-06T14:09:18;4.45;;;1.13;;
69197;SDS011;56311;50.298;8.514;2022-07-06T14:11:45;6.72;;;1.60;;
69197;SDS011;56311;50.298;8.514;2022-07-06T14:14:13;6.38;;;1.23;;
69197;SDS011;56311;50.298;8.514;2022-07-06T14:16:39;4.63;;;1.55;;
69197;SDS011;56311;50.298;8.514;2022-07-06T14:19:07;4.63;;;1.20;;
69197;SDS011;56311;50.298;8.514;2022-07-06T14:21:34;8.13;;;1.38;;
69197;SDS011;56311;50.298;8.514;2022-07-06T14:24:03;11.02;;;1.35;;
69197;SDS011;56311;50.298;8.514;2022-07-06T14:26:30;5.93;;;1.38;;
69197;SDS011;56311;50.298;8.514;2022-07-06T14:28:58;4.45;;;1.20;;
69197;SDS011;56311;50.298;8.514;2022-07-06T14:31:25;8.70;;;1.65;;
69197;SDS011;56311;50.298;8.514;2022-07-06T14:33:52;5.25;;;1.25;;
69197;SDS011;56311;50.298;8.514;2022-07-06T14:36:19;3.15;;;0.90;;
69197;SDS011;56311;50.298;8.514;2022-07-06T14:38:46;5.60;;;1.10;;
69197;SDS011;56311;50.298;8.514;2022-07-06T14:41:15;4.60;;;1.38;;
69197;SDS011;56311;50.298;8.514;2022-07-06T14:43:42;5.38;;;1.20;;
69197;SDS011;56311;50.298;8.514;2022-07-06T14:46:09;8.48;;;1.23;;
69197;SDS011;56311;50.298;8.514;2022-07-06T14:48:36;8.10;;;1.20;;
69197;SDS011;56311;50.298;8.514;2022-07-06T14:51:03;4.90;;;1.40;;
69197;SDS011;56311;50.298;8.514;2022-07-06T14:53:30;26.80;;;2.03;;
69197;SDS011;56311;50.298;8.514;2022-07-06T14:55:57;4.47;;;1.08;;
69197;SDS011;56311;50.298;8.514;2022-07-06T14:58:25;7.90;;;1.17;;
69197;SDS011;56311;50.298;8.514;2022-07-06T15:00:52;11.68;;;1.52;;
69197;SDS011;56311;50.298;8.514;2022-07-06T15:03:24;5.45;;;1.48;;
69197;SDS011;56311;50.298;8.514;2022-07-06T15:05:52;5.00;;;1.20;;
69197;SDS011;56311;50.298;8.514;2022-07-06T15:08:20;3.95;;;1.27;;